Time;durP1;ratioP1;P1;durP2;ratioP2;P2;SDS_P1;SDS_P2;PMS_P1;PMS_P2;Temp;Humidity;BMP_temperature;BMP_pressure;BME280_temperature;BME280_humidity;BME280_pressure;Samples;Min_cycle;Max_cycle;Signal;HPM_P1;HPM_P2
2024/03/05 00:01:14;;;;;;;17.63;13.38;;;4.50;91.60;;;;;;5046520;28;20043;-79
2024/03/05 00:03:40;;;;;;;18.25;14.07;;;4.50;91.60;;;;;;5052495;28;20066;-79
2024/03/05 00:06:06;;;;;;;18.45;13.45;;;4.40;91.60;;;;;;5052386;28;20073;-79
2024/03/05 00:08:32;;;;;;;15.88;13.07;;;4.50;91.60;;;;;;5053926;28;20104;-78
2024/03/05 00:10:59;;;;;;;17.17;13.75;;;4.40;91.60;;;;;;5055987;28;20045;-79
2024/03/05 00:13:25;;;;;;;20.02;13.95;;;4.40;91.70;;;;;;5056082;28;20004;-79
2024/03/05 00:15:52;;;;;;;16.63;13.05;;;4.30;91.70;;;;;;5064008;28;20033;-78
2024/03/05 00:18:18;;;;;;;17.52;14.20;;;4.30;91.80;;;;;;5059294;28;20020;-78
2024/03/05 00:20:43;;;;;;;19.10;14.30;;;4.30;91.90;;;;;;5047971;28;20809;-79
2024/03/05 00:23:09;;;;;;;19.17;15.30;;;4.30;91.90;;;;;;5058348;28;20043;-78
2024/03/05 00:25:35;;;;;;;21.48;15.18;;;4.30;92.00;;;;;;5050640;28;20457;-78
2024/03/05 00:28:00;;;;;;;20.42;15.60;;;4.30;92.00;;;;;;5058034;28;20490;-78
2024/03/05 00:30:26;;;;;;;19.35;15.52;;;4.30;92.00;;;;;;5049662;28;20891;-78
2024/03/05 00:32:52;;;;;;;22.27;16.50;;;4.20;92.00;;;;;;5062330;28;20023;-79
2024/03/05 00:35:18;;;;;;;18.88;15.13;;;4.20;92.10;;;;;;5052439;28;20495;-78
2024/03/05 00:37:43;;;;;;;18.52;14.77;;;4.20;92.10;;;;;;5053278;28;20138;-79
2024/03/05 00:40:09;;;;;;;21.98;16.50;;;4.20;92.20;;;;;;5053658;28;20060;-79
2024/03/05 00:42:35;;;;;;;22.00;16.02;;;4.10;92.20;;;;;;5053690;28;20049;-78
2024/03/05 00:45:01;;;;;;;20.63;16.33;;;4.10;92.30;;;;;;5054203;28;20049;-77
2024/03/05 00:47:29;;;;;;;19.42;15.13;;;4.10;92.30;;;;;;5053023;28;20368;-78
2024/03/05 00:49:55;;;;;;;20.27;16.98;;;4.10;92.30;;;;;;5053181;28;20728;-78
2024/03/05 00:52:21;;;;;;;20.80;16.02;;;4.00;92.40;;;;;;5048794;28;20074;-78
2024/03/05 00:54:46;;;;;;;20.85;16.02;;;4.00;92.40;;;;;;5045024;28;20036;-78
2024/03/05 00:57:12;;;;;;;19.52;16.15;;;4.00;92.50;;;;;;5056071;28;20028;-78
2024/03/05 00:59:38;;;;;;;19.08;15.38;;;4.00;92.50;;;;;;5050631;28;20407;-78
2024/03/05 01:02:04;;;;;;;20.00;16.20;;;4.00;92.60;;;;;;5050840;28;20045;-78
2024/03/05 01:04:30;;;;;;;19.90;16.17;;;3.90;92.60;;;;;;5053561;28;20082;-78
2024/03/05 01:06:58;;;;;;;20.17;15.85;;;3.90;92.70;;;;;;5046006;28;20267;-78
2024/03/05 01:09:27;;;;;;;22.00;17.65;;;3.90;92.70;;;;;;5052707;28;20032;-78
2024/03/05 01:11:53;;;;;;;19.40;16.50;;;3.90;92.70;;;;;;5054989;28;20444;-77
2024/03/05 01:14:19;;;;;;;18.90;15.60;;;3.80;92.80;;;;;;5053990;28;20025;-78
2024/03/05 01:16:45;;;;;;;20.25;16.45;;;3.80;92.80;;;;;;5052985;28;20131;-78
2024/03/05 01:19:14;;;;;;;20.23;15.65;;;3.80;92.80;;;;;;5056016;28;20856;-78
2024/03/05 01:21:41;;;;;;;20.58;16.77;;;3.80;92.80;;;;;;5045356;28;20143;-78
2024/03/05 01:24:10;;;;;;;20.77;16.42;;;3.80;92.80;;;;;;5051633;28;20398;-78
2024/03/05 01:26:38;;;;;;;18.23;15.57;;;3.80;92.70;;;;;;5054472;28;20127;-78
2024/03/05 01:29:05;;;;;;;17.88;15.48;;;3.80;92.70;;;;;;5049126;28;20440;-77
2024/03/05 01:31:33;;;;;;;22.05;16.92;;;3.80;92.70;;;;;;5051286;28;20049;-77
2024/03/05 01:34:00;;;;;;;21.55;17.73;;;3.70;92.80;;;;;;5052306;28;20582;-78
2024/03/05 01:36:25;;;;;;;21.92;16.60;;;3.70;92.80;;;;;;5058150;28;20048;-77
2024/03/05 01:38:51;;;;;;;22.27;17.67;;;3.60;92.90;;;;;;5050761;28;20031;-79
2024/03/05 01:41:18;;;;;;;21.48;16.70;;;3.60;92.90;;;;;;5060355;28;20047;-78
2024/03/05 01:43:44;;;;;;;20.55;16.83;;;3.60;93.00;;;;;;5059239;28;20052;-77
2024/03/05 01:46:13;;;;;;;21.55;18.50;;;3.60;93.00;;;;;;5046225;28;20045;-77
2024/03/05 01:48:41;;;;;;;22.13;18.45;;;3.60;93.00;;;;;;5049129;28;20318;-77
2024/03/05 01:51:07;;;;;;;20.83;16.58;;;3.60;93.10;;;;;;5049040;28;20348;-78
2024/03/05 01:53:33;;;;;;;19.08;16.45;;;3.60;93.10;;;;;;5049443;28;20469;-78
2024/03/05 01:55:59;;;;;;;22.15;17.08;;;3.60;93.10;;;;;;5046914;28;20039;-77
2024/03/05 01:58:25;;;;;;;20.00;17.05;;;3.60;93.20;;;;;;5049621;28;20089;-78
2024/03/05 02:00:51;;;;;;;18.98;16.10;;;3.60;93.20;;;;;;5048450;28;20610;-78
2024/03/05 02:03:17;;;;;;;19.60;15.68;;;3.60;93.20;;;;;;5054572;28;20161;-78
2024/03/05 02:05:44;;;;;;;21.23;16.40;;;3.50;93.30;;;;;;5049654;28;20424;-78
2024/03/05 02:08:11;;;;;;;20.02;16.20;;;3.50;93.30;;;;;;5051653;28;20069;-78
2024/03/05 02:10:37;;;;;;;20.45;16.08;;;3.60;93.30;;;;;;5053389;28;20032;-77
2024/03/05 02:13:03;;;;;;;19.13;15.65;;;3.50;93.30;;;;;;5055433;28;20127;-78
2024/03/05 02:15:29;;;;;;;18.90;15.32;;;3.50;93.30;;;;;;5049274;28;20405;-77
2024/03/05 02:17:55;;;;;;;17.92;15.65;;;3.50;93.30;;;;;;5053352;28;20087;-78
2024/03/05 02:20:21;;;;;;;21.52;15.50;;;3.50;93.10;;;;;;5047170;28;20120;-78
2024/03/05 02:22:46;;;;;;;19.20;16.05;;;3.50;93.00;;;;;;5044493;28;20409;-77
2024/03/05 02:25:12;;;;;;;20.30;16.23;;;3.50;92.80;;;;;;5047359;28;20041;-78
2024/03/05 02:27:38;;;;;;;18.20;14.68;;;3.50;92.70;;;;;;5048989;28;20012;-78
2024/03/05 02:30:10;;;;;;;18.80;15.32;;;3.40;92.60;;;;;;5039745;28;20068;-78
2024/03/05 02:32:40;;;;;;;19.73;15.43;;;3.40;92.60;;;;;;5056768;28;20009;-78
2024/03/05 02:35:07;;;;;;;17.73;15.02;;;3.30;92.60;;;;;;5055526;28;21676;-78
2024/03/05 02:37:39;;;;;;;18.10;16.13;;;3.30;92.60;;;;;;5055229;28;20505;-78
2024/03/05 02:40:10;;;;;;;22.02;16.67;;;3.40;92.80;;;;;;5049079;28;20327;-78
2024/03/05 02:42:40;;;;;;;17.17;15.13;;;3.40;92.80;;;;;;5049087;28;20506;-78
2024/03/05 02:45:07;;;;;;;18.50;15.30;;;3.40;92.80;;;;;;5047516;28;20489;-78
2024/03/05 02:47:36;;;;;;;19.55;15.77;;;3.50;92.80;;;;;;5070557;28;20066;-78
2024/03/05 02:50:08;;;;;;;19.42;15.32;;;3.40;92.80;;;;;;5051038;28;20115;-77
2024/03/05 02:52:38;;;;;;;21.58;16.33;;;3.50;92.80;;;;;;5052774;28;20020;-78
2024/03/05 02:55:09;;;;;;;19.88;16.08;;;3.40;92.80;;;;;;5052828;28;20052;-77
2024/03/05 02:57:38;;;;;;;20.17;16.17;;;3.50;92.90;;;;;;5054498;28;20038;-78
2024/03/05 03:00:08;;;;;;;18.83;15.75;;;3.60;92.90;;;;;;5046302;28;20035;-78
2024/03/05 03:02:34;;;;;;;21.77;17.23;;;3.60;92.90;;;;;;5055489;28;20020;-78
2024/03/05 03:05:00;;;;;;;21.58;17.60;;;3.60;93.00;;;;;;5051455;28;20041;-79
2024/03/05 03:07:26;;;;;;;21.85;16.90;;;3.70;93.00;;;;;;5055166;28;20263;-78
2024/03/05 03:09:52;;;;;;;22.23;14.95;;;3.70;93.00;;;;;;5057554;28;20043;-78
2024/03/05 03:12:17;;;;;;;22.05;15.63;;;3.70;93.00;;;;;;5052594;28;20326;-78
2024/03/05 03:14:46;;;;;;;17.85;13.43;;;3.70;93.10;;;;;;5050373;28;20036;-77
2024/03/05 03:17:12;;;;;;;15.40;12.85;;;3.90;93.20;;;;;;5051817;28;20064;-78
2024/03/05 03:19:38;;;;;;;16.25;13.05;;;3.90;93.20;;;;;;5051566;28;20466;-77
2024/03/05 03:22:04;;;;;;;17.13;14.20;;;3.90;93.30;;;;;;5048085;28;20033;-77
2024/03/05 03:24:29;;;;;;;17.40;12.27;;;4.00;93.30;;;;;;5052901;28;20021;-78
2024/03/05 03:26:55;;;;;;;17.02;12.13;;;4.10;93.40;;;;;;5045826;28;20033;-78
2024/03/05 03:29:21;;;;;;;14.93;11.48;;;4.10;93.40;;;;;;5054586;28;20655;-78
2024/03/05 03:31:47;;;;;;;15.32;11.40;;;4.20;93.40;;;;;;5049555;28;20043;-78
2024/03/05 03:34:16;;;;;;;14.98;10.93;;;4.20;93.40;;;;;;5047330;28;20035;-78
2024/03/05 03:36:42;;;;;;;13.55;10.43;;;4.20;93.40;;;;;;5054493;28;20033;-78
2024/03/05 03:39:11;;;;;;;14.82;11.55;;;4.30;93.30;;;;;;5053568;28;20051;-78
2024/03/05 03:41:39;;;;;;;16.25;10.80;;;4.30;93.30;;;;;;5042315;28;20037;-78
2024/03/05 03:44:08;;;;;;;13.48;10.90;;;4.40;93.30;;;;;;5056005;28;20035;-79
2024/03/05 03:46:37;;;;;;;15.48;10.52;;;4.40;93.20;;;;;;5051844;28;20028;-78
2024/03/05 03:49:05;;;;;;;16.50;10.27;;;4.40;93.20;;;;;;5047926;28;20120;-78
2024/03/05 03:51:31;;;;;;;14.95;10.68;;;4.40;93.20;;;;;;5055028;28;20028;-78
2024/03/05 03:53:57;;;;;;;16.77;11.25;;;4.50;93.10;;;;;;5048559;28;20099;-78
2024/03/05 03:56:23;;;;;;;14.05;10.77;;;4.50;93.10;;;;;;5052540;28;20107;-78
2024/03/05 03:58:48;;;;;;;13.48;10.43;;;4.60;93.00;;;;;;5055726;28;20037;-78
2024/03/05 04:01:14;;;;;;;18.20;10.82;;;4.60;92.90;;;;;;5049933;28;20692;-78
2024/03/05 04:03:40;;;;;;;14.32;10.25;;;4.60;92.90;;;;;;5058330;28;20021;-78
2024/03/05 04:06:06;;;;;;;16.05;10.48;;;4.60;92.90;;;;;;5055198;28;20281;-78
2024/03/05 04:08:32;;;;;;;16.52;10.60;;;4.60;92.80;;;;;;5050521;28;20028;-78
2024/03/05 04:10:57;;;;;;;15.18;10.98;;;4.60;92.80;;;;;;5048775;28;20024;-78
2024/03/05 04:13:23;;;;;;;14.73;10.98;;;4.60;92.80;;;;;;5056320;28;20377;-78
2024/03/05 04:15:50;;;;;;;14.25;10.65;;;4.60;92.70;;;;;;5051666;28;20366;-78
2024/03/05 04:18:16;;;;;;;12.82;10.13;;;4.60;92.70;;;;;;5055071;28;20025;-78
2024/03/05 04:20:41;;;;;;;12.20;9.40;;;4.60;92.60;;;;;;5047068;28;20045;-78
2024/03/05 04:23:09;;;;;;;15.45;11.13;;;4.50;92.60;;;;;;5055675;28;20055;-78
2024/03/05 04:25:39;;;;;;;15.57;11.15;;;4.60;92.60;;;;;;5055489;28;20025;-78
2024/03/05 04:28:10;;;;;;;13.60;10.73;;;4.60;92.60;;;;;;5059577;28;20027;-79
2024/03/05 04:30:41;;;;;;;16.38;11.43;;;4.60;92.60;;;;;;5049456;28;20513;-78
2024/03/05 04:33:09;;;;;;;19.88;12.25;;;4.60;92.50;;;;;;5058123;28;20024;-78
2024/03/05 04:35:36;;;;;;;15.48;11.18;;;4.50;92.50;;;;;;5052461;28;20032;-78
2024/03/05 04:38:05;;;;;;;19.63;13.63;;;4.50;92.40;;;;;;5060460;28;20102;-78
2024/03/05 04:40:34;;;;;;;17.08;11.98;;;4.50;92.40;;;;;;5055494;28;20374;-78
2024/03/05 04:43:00;;;;;;;17.50;12.25;;;4.50;92.50;;;;;;5057084;28;20041;-78
2024/03/05 04:45:26;;;;;;;15.68;12.27;;;4.50;92.50;;;;;;5054807;28;20090;-78
2024/03/05 04:47:51;;;;;;;17.17;11.68;;;4.50;92.60;;;;;;5060901;28;20303;-78
2024/03/05 04:50:18;;;;;;;16.20;12.25;;;4.50;92.50;;;;;;5056366;28;20025;-78
2024/03/05 04:52:44;;;;;;;16.83;11.73;;;4.50;92.50;;;;;;5052362;28;20453;-78
2024/03/05 04:55:13;;;;;;;15.75;11.57;;;4.50;92.60;;;;;;5051558;28;20033;-78
2024/03/05 04:57:40;;;;;;;19.55;11.15;;;4.50;92.60;;;;;;5056098;28;20092;-78
2024/03/05 05:00:19;;;;;;;15.70;11.35;;;4.50;92.70;;;;;;5069164;28;21451;-78
2024/03/05 05:02:46;;;;;;;15.85;10.95;;;4.50;92.80;;;;;;5055546;28;20009;-78
2024/03/05 05:05:12;;;;;;;14.93;11.27;;;4.50;92.80;;;;;;5053076;28;20306;-78
2024/03/05 05:07:38;;;;;;;15.70;11.60;;;4.50;92.80;;;;;;5059042;28;20552;-79
2024/03/05 05:10:06;;;;;;;16.35;11.57;;;4.50;92.90;;;;;;5055268;28;20056;-77
2024/03/05 05:12:33;;;;;;;15.40;11.07;;;4.50;92.90;;;;;;5057942;28;20102;-78
2024/03/05 05:15:00;;;;;;;15.32;10.82;;;4.50;92.90;;;;;;5048517;28;20040;-77
2024/03/05 05:17:26;;;;;;;14.35;10.43;;;4.60;92.90;;;;;;5054348;28;20023;-79
2024/03/05 05:19:51;;;;;;;16.83;11.63;;;4.60;93.00;;;;;;5053266;28;20033;-80
2024/03/05 05:22:17;;;;;;;15.13;10.73;;;4.60;93.00;;;;;;5049958;28;20365;-80
2024/03/05 05:24:43;;;;;;;17.23;11.45;;;4.60;93.00;;;;;;5055846;28;20062;-80
2024/03/05 05:27:09;;;;;;;16.08;12.77;;;4.60;93.10;;;;;;5048779;28;20032;-79
2024/03/05 05:29:36;;;;;;;18.80;13.90;;;4.60;93.10;;;;;;5055206;28;20023;-79
2024/03/05 05:32:03;;;;;;;18.15;12.40;;;4.60;93.10;;;;;;5052439;28;20133;-80
2024/03/05 05:34:28;;;;;;;15.27;11.48;;;4.60;93.00;;;;;;5061241;28;20013;-79
2024/03/05 05:36:54;;;;;;;17.17;11.98;;;4.70;93.00;;;;;;5053546;28;20043;-79
2024/03/05 05:39:24;;;;;;;15.18;11.20;;;4.60;93.00;;;;;;5050931;28;20373;-78
2024/03/05 05:41:53;;;;;;;17.17;12.07;;;4.60;93.00;;;;;;5054044;28;20094;-78
2024/03/05 05:44:19;;;;;;;17.38;11.98;;;4.60;93.10;;;;;;5047803;28;20025;-78
2024/03/05 05:46:45;;;;;;;16.90;12.60;;;4.70;93.20;;;;;;5055212;28;20055;-78
2024/03/05 05:49:14;;;;;;;16.60;12.07;;;4.70;93.30;;;;;;5053404;28;20033;-78
2024/03/05 05:51:39;;;;;;;18.05;12.27;;;4.70;93.30;;;;;;5058599;28;20306;-79
2024/03/05 05:54:10;;;;;;;15.88;11.45;;;4.80;93.30;;;;;;5056810;28;20024;-78
2024/03/05 05:56:36;;;;;;;19.05;12.00;;;4.80;93.30;;;;;;5048169;28;20493;-79
2024/03/05 05:59:07;;;;;;;19.63;11.45;;;4.90;93.40;;;;;;5052201;28;20373;-78
2024/03/05 06:01:34;;;;;;;18.92;12.95;;;5.00;93.30;;;;;;5050244;28;20042;-78
2024/03/05 06:04:01;;;;;;;18.63;12.52;;;5.10;93.30;;;;;;5051995;28;20036;-78
2024/03/05 06:06:26;;;;;;;16.02;11.77;;;5.10;93.30;;;;;;5052421;28;20032;-79
2024/03/05 06:08:52;;;;;;;18.15;12.52;;;5.20;93.30;;;;;;5045329;28;20105;-79
2024/03/05 06:11:18;;;;;;;16.70;11.25;;;5.20;93.10;;;;;;5045177;28;20432;-79
2024/03/05 06:13:44;;;;;;;18.15;12.20;;;5.30;93.10;;;;;;5048204;28;20047;-79
2024/03/05 06:16:10;;;;;;;17.02;11.65;;;5.30;93.00;;;;;;5046148;28;20048;-79
2024/03/05 06:18:36;;;;;;;17.27;11.30;;;5.40;92.90;;;;;;5054840;28;20385;-78
2024/03/05 06:21:07;;;;;;;16.35;11.68;;;5.30;92.90;;;;;;5050215;28;20115;-79
2024/03/05 06:23:34;;;;;;;19.80;12.25;;;5.40;93.00;;;;;;5051075;28;20048;-78
2024/03/05 06:26:01;;;;;;;18.75;12.77;;;5.40;92.90;;;;;;5054075;28;20040;-79
2024/03/05 06:28:27;;;;;;;16.48;12.40;;;5.50;93.00;;;;;;5054766;28;20092;-79
2024/03/05 06:30:52;;;;;;;17.10;13.02;;;5.50;92.90;;;;;;5052922;28;20035;-79
2024/03/05 06:33:19;;;;;;;17.95;12.60;;;5.50;92.90;;;;;;5054972;28;20024;-79
2024/03/05 06:35:46;;;;;;;19.27;12.45;;;5.50;92.90;;;;;;5049406;28;20499;-79
2024/03/05 06:38:13;;;;;;;19.45;12.68;;;5.50;93.00;;;;;;5055992;28;20066;-77
2024/03/05 06:40:38;;;;;;;17.10;12.52;;;5.50;93.00;;;;;;5049726;28;20411;-77
2024/03/05 06:43:06;;;;;;;16.65;10.98;;;5.60;93.00;;;;;;5053895;28;20041;-78
2024/03/05 06:45:36;;;;;;;16.67;11.57;;;5.60;93.10;;;;;;5041996;28;20457;-79
2024/03/05 06:48:07;;;;;;;16.08;11.65;;;5.60;93.00;;;;;;5054993;28;20020;-78
2024/03/05 06:50:41;;;;;;;16.17;11.70;;;5.60;93.10;;;;;;5051429;28;20033;-78
2024/03/05 06:58:44;;;;;;;17.35;11.60;;;5.60;93.20;;;;;;5056155;28;20082;-77
2024/03/05 07:01:10;;;;;;;16.45;11.68;;;5.60;93.20;;;;;;5046703;28;20033;-78
2024/03/05 07:03:38;;;;;;;17.25;11.57;;;5.70;93.30;;;;;;5051960;28;20331;-78
2024/03/05 07:06:08;;;;;;;16.85;11.85;;;5.70;93.30;;;;;;5056023;28;20052;-77
2024/03/05 07:08:35;;;;;;;14.93;11.65;;;5.70;93.30;;;;;;5049947;28;20021;-78
2024/03/05 07:11:01;;;;;;;17.17;11.20;;;5.70;93.40;;;;;;5053894;28;20301;-78
2024/03/05 07:13:29;;;;;;;15.52;11.00;;;5.70;93.50;;;;;;5050286;28;20047;-78
2024/03/05 07:15:56;;;;;;;16.13;11.07;;;5.80;93.50;;;;;;5048288;28;20423;-78
2024/03/05 07:18:22;;;;;;;16.45;10.18;;;5.80;93.50;;;;;;5048708;28;20021;-77
2024/03/05 07:20:47;;;;;;;14.85;11.25;;;5.90;93.40;;;;;;5052907;28;20454;-78
2024/03/05 07:23:13;;;;;;;16.42;11.40;;;5.90;93.50;;;;;;5050836;28;20043;-78
2024/03/05 07:25:39;;;;;;;17.77;11.30;;;6.00;93.40;;;;;;5047181;28;20221;-78
2024/03/05 07:28:04;;;;;;;16.83;10.93;;;6.00;93.40;;;;;;5051163;28;20437;-78
2024/03/05 07:30:30;;;;;;;13.82;11.02;;;6.00;93.40;;;;;;5045310;28;20060;-79
2024/03/05 07:32:56;;;;;;;15.05;10.88;;;6.10;93.30;;;;;;5056187;28;20453;-78
2024/03/05 07:35:22;;;;;;;18.05;12.45;;;6.10;93.30;;;;;;5046396;28;20578;-78
2024/03/05 07:37:48;;;;;;;14.52;11.77;;;6.10;93.30;;;;;;5053650;28;20052;-78
2024/03/05 07:40:17;;;;;;;17.25;12.35;;;6.10;93.30;;;;;;5053682;28;20027;-78
2024/03/05 07:42:45;;;;;;;20.75;12.18;;;6.10;93.40;;;;;;5053122;28;20041;-78
2024/03/05 07:45:12;;;;;;;16.33;11.13;;;6.10;93.40;;;;;;5054154;28;20151;-78
2024/03/05 07:47:38;;;;;;;18.58;12.43;;;6.10;93.40;;;;;;5055305;28;20020;-78
2024/03/05 07:50:05;;;;;;;14.90;11.15;;;6.10;93.50;;;;;;5054333;28;20024;-78
2024/03/05 07:52:31;;;;;;;15.88;11.07;;;6.10;93.50;;;;;;5056665;28;20013;-78
2024/03/05 07:54:56;;;;;;;17.27;12.48;;;6.20;93.50;;;;;;5052386;28;20071;-78
2024/03/05 07:57:22;;;;;;;15.20;10.77;;;6.20;93.50;;;;;;5058403;28;20361;-77
2024/03/05 07:59:50;;;;;;;15.63;10.90;;;6.20;93.50;;;;;;5047506;28;20191;-78
2024/03/05 08:02:16;;;;;;;16.67;11.30;;;6.20;93.40;;;;;;5054696;28;20109;-78
2024/03/05 08:04:41;;;;;;;15.23;10.57;;;6.30;93.30;;;;;;5052433;28;20079;-78
2024/03/05 08:07:07;;;;;;;14.40;9.68;;;6.30;93.40;;;;;;5048841;28;20174;-78
2024/03/05 08:09:36;;;;;;;17.30;9.77;;;6.30;93.30;;;;;;5054129;28;20457;-79
2024/03/05 08:12:03;;;;;;;16.95;10.95;;;6.30;93.40;;;;;;5054072;28;20082;-78
2024/03/05 08:14:30;;;;;;;13.43;10.13;;;6.40;93.50;;;;;;5052906;28;20028;-78
2024/03/05 08:16:55;;;;;;;15.88;10.70;;;6.40;93.50;;;;;;5053552;28;20102;-78
2024/03/05 08:19:21;;;;;;;15.68;10.02;;;6.40;93.60;;;;;;5051196;28;20100;-78
2024/03/05 08:21:47;;;;;;;13.90;9.82;;;6.40;93.70;;;;;;5049614;28;20124;-78
2024/03/05 08:24:12;;;;;;;14.43;9.93;;;6.50;93.80;;;;;;5052540;28;20050;-78
2024/03/05 08:26:38;;;;;;;14.30;10.13;;;6.50;93.80;;;;;;5054050;28;20473;-78
2024/03/05 08:29:03;;;;;;;16.88;9.98;;;6.60;93.60;;;;;;5053569;28;20028;-78
2024/03/05 08:31:29;;;;;;;13.95;9.50;;;6.60;93.70;;;;;;5052341;28;20048;-78
2024/03/05 08:33:55;;;;;;;13.57;9.32;;;6.60;93.60;;;;;;5050796;28;20620;-78
2024/03/05 08:36:25;;;;;;;13.13;8.65;;;6.70;93.60;;;;;;5057379;28;20043;-78
2024/03/05 08:38:51;;;;;;;18.38;8.93;;;6.80;93.50;;;;;;5053363;28;20029;-78
2024/03/05 08:41:17;;;;;;;14.10;8.45;;;6.80;93.50;;;;;;5045294;28;20760;-78
2024/03/05 08:43:43;;;;;;;13.57;9.05;;;6.90;93.60;;;;;;5044365;28;20067;-78
2024/03/05 08:46:09;;;;;;;16.27;8.88;;;7.00;93.50;;;;;;5050580;28;20079;-78
2024/03/05 08:48:35;;;;;;;15.73;9.15;;;7.00;93.30;;;;;;5052068;28;20441;-79
2024/03/05 08:51:00;;;;;;;14.43;9.02;;;7.10;93.30;;;;;;5054485;28;20037;-75
2024/03/05 08:53:26;;;;;;;12.80;8.90;;;7.10;93.40;;;;;;5054475;28;20384;-74
2024/03/05 08:55:52;;;;;;;14.23;8.75;;;7.20;93.40;;;;;;5049397;28;20365;-73
2024/03/05 08:58:18;;;;;;;11.57;8.93;;;7.30;93.30;;;;;;5052708;28;20100;-73
2024/03/05 09:00:44;;;;;;;13.98;9.50;;;7.30;93.10;;;;;;5056065;28;20040;-73
2024/03/05 09:03:14;;;;;;;13.32;8.30;;;7.30;93.00;;;;;;5056176;28;20024;-73
2024/03/05 09:05:40;;;;;;;14.10;8.57;;;7.40;92.90;;;;;;5053077;28;20071;-73
2024/03/05 09:08:06;;;;;;;12.93;9.13;;;7.40;92.90;;;;;;5053330;28;20411;-73
2024/03/05 09:10:32;;;;;;;13.90;9.48;;;7.40;92.80;;;;;;5047834;28;20035;-73
2024/03/05 09:12:58;;;;;;;13.10;9.82;;;7.50;92.90;;;;;;5059035;28;20025;-73
2024/03/05 09:15:25;;;;;;;13.15;9.00;;;7.50;92.90;;;;;;5052094;28;20048;-74
2024/03/05 09:17:51;;;;;;;12.43;9.40;;;7.60;92.70;;;;;;5052846;28;20028;-73
2024/03/05 09:20:17;;;;;;;16.50;9.80;;;7.50;92.60;;;;;;5049626;28;20029;-73
2024/03/05 09:22:44;;;;;;;13.43;9.75;;;7.60;92.80;;;;;;5055734;28;20468;-73
2024/03/05 09:25:11;;;;;;;13.13;9.95;;;7.50;93.00;;;;;;5053699;28;20508;-74
2024/03/05 09:27:37;;;;;;;16.00;9.27;;;7.60;93.10;;;;;;5049718;28;20116;-73
2024/03/05 09:30:05;;;;;;;12.77;9.45;;;7.60;93.30;;;;;;5049118;28;20032;-74
2024/03/05 09:32:31;;;;;;;13.02;9.75;;;7.70;93.30;;;;;;5055111;28;20085;-73
2024/03/05 09:34:57;;;;;;;13.23;9.68;;;7.80;93.10;;;;;;5046613;28;20553;-73
2024/03/05 09:37:26;;;;;;;14.20;9.57;;;7.90;93.20;;;;;;5055543;28;20017;-72
2024/03/05 09:39:54;;;;;;;15.55;10.40;;;7.90;93.20;;;;;;5055704;28;20036;-72
2024/03/05 09:42:20;;;;;;;13.38;9.82;;;7.90;93.20;;;;;;5049118;28;20381;-72
2024/03/05 09:44:50;;;;;;;12.45;9.25;;;7.90;92.90;;;;;;5051086;28;20167;-72
2024/03/05 09:47:17;;;;;;;14.40;10.25;;;7.90;93.10;;;;;;5052798;28;20017;-73
2024/03/05 09:49:45;;;;;;;13.50;10.68;;;7.90;93.10;;;;;;5056392;28;20059;-73
2024/03/05 09:52:13;;;;;;;12.23;9.40;;;7.90;93.20;;;;;;5035888;28;20086;-73
2024/03/05 09:54:39;;;;;;;13.38;10.32;;;8.00;93.30;;;;;;5044986;28;20063;-73
2024/03/05 09:57:06;;;;;;;15.52;11.15;;;8.10;93.30;;;;;;5042074;28;20559;-72
2024/03/05 09:59:31;;;;;;;15.55;10.85;;;8.00;93.00;;;;;;5046274;28;20025;-73
2024/03/05 10:01:57;;;;;;;15.40;10.77;;;8.10;93.30;;;;;;5042441;28;20427;-73
2024/03/05 10:04:26;;;;;;;13.77;11.20;;;8.10;93.40;;;;;;5044758;28;20025;-72
2024/03/05 10:06:52;;;;;;;14.13;10.98;;;8.20;93.40;;;;;;5046301;28;20044;-73
2024/03/05 10:09:18;;;;;;;13.95;10.52;;;8.30;93.20;;;;;;5052336;28;20020;-74
2024/03/05 10:11:44;;;;;;;16.98;11.32;;;8.30;93.10;;;;;;5049486;28;20536;-74
2024/03/05 10:14:11;;;;;;;15.00;11.15;;;8.40;93.00;;;;;;5057613;28;20024;-74
2024/03/05 10:16:38;;;;;;;14.57;10.75;;;8.30;92.50;;;;;;5051990;28;20033;-73
2024/03/05 10:19:17;;;;;;;15.93;12.20;;;8.20;92.60;;;;;;5050651;28;20013;-74
2024/03/05 10:21:48;;;;;;;16.70;12.05;;;8.10;92.80;;;;;;5051454;28;20036;-73
2024/03/05 10:24:14;;;;;;;15.65;12.38;;;8.10;93.10;;;;;;5048565;28;20032;-74
2024/03/05 10:26:41;;;;;;;17.25;12.02;;;8.20;93.30;;;;;;5051596;28;20059;-73
2024/03/05 10:29:10;;;;;;;17.35;12.00;;;8.20;93.30;;;;;;5054706;28;20039;-73
2024/03/05 10:31:46;;;;;;;15.40;12.82;;;8.20;93.50;;;;;;5038250;28;20500;-73
2024/03/05 10:34:16;;;;;;;13.93;11.98;;;8.30;93.50;;;;;;5047910;28;20352;-74
2024/03/05 10:36:42;;;;;;;14.93;11.70;;;8.40;93.60;;;;;;5043730;28;20032;-71
2024/03/05 10:39:11;;;;;;;16.98;12.52;;;8.30;93.50;;;;;;5048095;28;20096;-72
2024/03/05 10:41:38;;;;;;;14.82;12.20;;;8.40;93.50;;;;;;5039252;28;20033;-74
2024/03/05 10:44:06;;;;;;;16.05;13.75;;;8.40;93.80;;;;;;5049068;28;20024;-71
2024/03/05 10:46:34;;;;;;;18.65;12.30;;;8.50;93.90;;;;;;5043147;28;20067;-73
2024/03/05 10:49:07;;;;;;;19.55;14.38;;;8.60;93.80;;;;;;5048164;28;20025;-73
2024/03/05 10:51:40;;;;;;;15.85;13.35;;;8.60;93.40;;;;;;5041945;28;20483;-71
2024/03/05 10:54:07;;;;;;;17.08;13.85;;;8.60;93.40;;;;;;5041717;28;20417;-73
2024/03/05 10:56:38;;;;;;;14.85;12.30;;;8.70;93.50;;;;;;5052317;28;20028;-72
2024/03/05 11:01:42;;;;;;;14.82;12.30;;;8.90;93.00;;;;;;5040273;28;20052;-73
2024/03/05 11:04:11;;;;;;;17.48;12.45;;;9.00;92.70;;;;;;5045821;28;20366;-72
2024/03/05 11:06:40;;;;;;;16.55;12.75;;;9.00;92.70;;;;;;5031617;28;20081;-74
2024/03/05 11:09:21;;;;;;;15.05;12.05;;;9.10;92.60;;;;;;5047922;28;20032;-72
2024/03/05 11:11:50;;;;;;;16.55;11.55;;;9.20;92.20;;;;;;5051086;28;20037;-73
2024/03/05 11:14:18;;;;;;;16.10;10.23;;;9.30;92.30;;;;;;5051362;28;20020;-75
2024/03/05 11:16:56;;;;;;;14.60;10.13;;;9.30;91.90;;;;;;5054601;28;20498;-71
2024/03/05 11:19:22;;;;;;;17.15;10.00;;;9.40;92.00;;;;;;5053489;28;20021;-71
2024/03/05 11:21:47;;;;;;;17.17;9.07;;;9.60;92.30;;;;;;5047987;28;20025;-72
2024/03/05 11:24:13;;;;;;;12.48;8.50;;;9.80;91.90;;;;;;5051109;28;20080;-74
2024/03/05 11:26:39;;;;;;;15.32;9.45;;;9.80;90.60;;;;;;5051993;28;20453;-73
2024/03/05 11:29:17;;;;;;;15.98;10.30;;;9.90;90.30;;;;;;5051440;28;20036;-74
2024/03/05 11:31:52;;;;;;;14.55;9.27;;;9.90;90.20;;;;;;5044307;28;20045;-71
2024/03/05 11:34:18;;;;;;;13.43;9.65;;;9.90;90.20;;;;;;5052346;28;20029;-74
2024/03/05 11:36:44;;;;;;;13.18;9.48;;;9.90;90.20;;;;;;5055099;28;20078;-73
2024/03/05 11:39:19;;;;;;;17.38;11.30;;;9.80;90.10;;;;;;5049138;28;20064;-74
2024/03/05 11:41:47;;;;;;;17.20;10.02;;;9.70;90.10;;;;;;5048935;28;20058;-74
2024/03/05 11:44:35;;;;;;;21.45;12.55;;;9.60;90.20;;;;;;5057854;28;20042;-74
2024/03/05 11:47:01;;;;;;;15.60;11.70;;;9.50;90.60;;;;;;5038265;28;20028;-74
2024/03/05 11:49:26;;;;;;;15.35;11.43;;;9.40;90.60;;;;;;5054259;28;20086;-73
2024/03/05 11:51:52;;;;;;;17.33;12.02;;;9.40;91.10;;;;;;5051711;28;20036;-74
2024/03/05 11:54:18;;;;;;;19.88;13.13;;;9.30;91.40;;;;;;5058544;28;20028;-74
2024/03/05 11:56:45;;;;;;;16.52;12.52;;;9.30;91.70;;;;;;5056856;28;20499;-73
2024/03/05 11:59:12;;;;;;;15.77;13.13;;;9.40;91.80;;;;;;5056016;28;20067;-73
2024/03/05 12:01:41;;;;;;;18.88;13.63;;;9.40;92.00;;;;;;5052481;28;20289;-73
2024/03/05 12:04:09;;;;;;;19.25;13.10;;;9.40;92.00;;;;;;5054755;28;20024;-73
2024/03/05 12:06:41;;;;;;;18.60;13.10;;;9.30;92.00;;;;;;5068632;28;20200;-73
2024/03/05 12:09:20;;;;;;;16.17;12.90;;;9.30;91.90;;;;;;5056057;28;20029;-73
2024/03/05 12:12:02;;;;;;;16.00;11.77;;;9.20;91.90;;;;;;5052927;28;20036;-73
2024/03/05 12:14:49;;;;;;;17.42;11.88;;;9.20;91.80;;;;;;5049498;28;20024;-73
2024/03/05 12:17:18;;;;;;;16.50;13.35;;;9.20;91.80;;;;;;5047905;28;20046;-73
2024/03/05 12:19:44;;;;;;;15.02;12.07;;;9.20;91.80;;;;;;5049769;28;20024;-73
2024/03/05 12:22:10;;;;;;;17.95;13.20;;;9.20;92.00;;;;;;5052939;28;20101;-74
2024/03/05 12:24:36;;;;;;;18.80;12.50;;;9.30;91.80;;;;;;5053455;28;20047;-74
2024/03/05 12:27:03;;;;;;;17.20;12.93;;;9.40;91.70;;;;;;5052100;28;20063;-73
2024/03/05 12:29:37;;;;;;;17.27;12.27;;;9.50;91.50;;;;;;5053198;28;20048;-73
2024/03/05 12:32:13;;;;;;;18.35;13.02;;;9.60;91.40;;;;;;5054045;28;20028;-73
2024/03/05 12:34:43;;;;;;;17.63;12.45;;;9.60;91.00;;;;;;5053745;28;20034;-73
2024/03/05 12:37:12;;;;;;;17.50;11.23;;;9.70;91.10;;;;;;5049353;28;20049;-72
2024/03/05 12:39:39;;;;;;;16.95;13.15;;;9.80;90.40;;;;;;5051946;28;20360;-74
2024/03/05 12:42:13;;;;;;;18.88;12.90;;;9.80;90.70;;;;;;5047142;28;20120;-74
2024/03/05 12:44:40;;;;;;;18.02;11.57;;;9.80;90.40;;;;;;5050186;28;20032;-74
2024/03/05 12:47:11;;;;;;;17.08;11.95;;;9.80;90.30;;;;;;5048299;28;20505;-73